Time;durP1;ratioP1;P1;durP2;ratioP2;P2;SDS_P1;SDS_P2;PMS_P1;PMS_P2;Temp;Humidity;BMP_temperature;BMP_pressure;BME280_temperature;BME280_humidity;BME280_pressure;Samples;Min_cycle;Max_cycle;Signal;HPM_P1;HPM_P2
2022/06/10 00:02:28;;;;;;;6.83;4.78;;;;;;;16.83;80.44;100074.73;2111925;81;21027;-74
2022/06/10 00:05:31;;;;;;;5.58;4.87;;;;;;;16.85;80.46;100074.53;2107431;83;21489;-73
2022/06/10 00:08:41;;;;;;;6.45;5.50;;;;;;;16.86;80.39;100080.19;2107050;82;21101;-73
2022/06/10 00:11:42;;;;;;;6.30;5.70;;;;;;;16.88;80.39;100082.97;2125085;81;21028;-73
2022/06/10 00:14:44;;;;;;;7.42;5.42;;;;;;;16.89;80.39;100086.47;2125651;82;21034;-73
2022/06/10 00:17:47;;;;;;;8.65;5.37;;;;;;;16.89;80.43;100081.92;2164420;82;20981;-73
2022/06/10 00:20:48;;;;;;;6.72;5.58;;;;;;;16.89;80.43;100079.77;2161261;82;21046;-73
2022/06/10 00:23:50;;;;;;;8.03;5.35;;;;;;;16.87;80.39;100082.67;2141958;82;21876;-73
2022/06/10 00:26:51;;;;;;;6.42;5.75;;;;;;;16.88;80.35;100088.85;2158003;81;21528;-73
2022/06/10 00:29:53;;;;;;;6.85;5.20;;;;;;;16.88;80.33;100091.01;2169783;81;21054;-73
2022/06/10 00:32:56;;;;;;;6.15;5.55;;;;;;;16.88;80.26;100096.89;2169563;81;21042;-74
2022/06/10 00:40:23;;;;;;;8.53;5.78;;;;;;;16.87;80.19;100097.41;2135884;83;21343;-73
2022/06/10 00:43:29;;;;;;;6.25;5.62;;;;;;;16.85;80.09;100104.83;2140627;82;21026;-73
2022/06/10 00:46:36;;;;;;;6.08;5.47;;;;;;;16.84;80.10;100101.84;2173966;81;21041;-74
2022/06/10 00:49:37;;;;;;;7.62;5.70;;;;;;;16.80;80.07;100102.76;2166749;82;20963;-75
2022/06/10 00:52:47;;;;;;;7.95;5.85;;;;;;;16.80;80.05;100108.64;2180750;81;21010;-75
2022/06/10 00:55:54;;;;;;;8.23;6.40;;;;;;;16.79;80.02;100111.84;2161472;82;21034;-79
2022/06/10 01:02:42;;;;;;;9.05;6.00;;;;;;;16.77;79.83;100109.05;2175724;81;21070;-75
2022/06/10 01:05:46;;;;;;;7.30;5.85;;;;;;;16.75;79.80;100112.42;2166330;80;20967;-75
2022/06/10 01:08:50;;;;;;;6.20;4.92;;;;;;;16.75;79.81;100120.45;2181530;80;21041;-76
2022/06/10 01:15:57;;;;;;;7.35;5.90;;;;;;;16.69;79.70;100128.80;2122452;83;21109;-75
2022/06/10 01:40:15;;;;;;;5.92;5.35;;;;;;;16.58;79.61;100155.72;2133354;82;21047;-75
2022/06/10 01:44:10;;;;;;;6.25;5.70;;;;;;;16.55;79.65;100157.96;2085738;83;21070;-75
2022/06/10 01:47:17;;;;;;;6.90;5.37;;;;;;;16.53;79.66;100164.88;2163903;81;21106;-76
2022/06/10 01:50:41;;;;;;;6.55;5.95;;;;;;;16.49;79.64;100160.94;2143279;82;21265;-75
2022/06/10 01:57:53;;;;;;;6.83;6.22;;;;;;;16.42;79.69;100159.30;2134567;82;21072;-76
2022/06/10 02:01:02;;;;;;;8.20;6.62;;;;;;;16.37;79.75;100166.59;2138150;82;21046;-75
2022/06/10 02:04:28;;;;;;;6.53;5.92;;;;;;;16.35;79.83;100178.02;2171868;81;21119;-75
2022/06/10 02:07:34;;;;;;;6.87;6.22;;;;;;;16.31;79.92;100181.62;2084947;83;21010;-75
2022/06/10 02:10:58;;;;;;;7.10;6.40;;;;;;;16.30;79.99;100193.86;2149889;82;21066;-75
2022/06/10 02:14:23;;;;;;;8.23;6.80;;;;;;;16.27;80.05;100192.41;2134847;82;21053;-76
2022/06/10 02:17:29;;;;;;;7.05;6.40;;;;;;;16.27;80.07;100200.96;2118259;82;21041;-76
2022/06/10 02:20:32;;;;;;;8.50;7.05;;;;;;;16.23;80.13;100192.52;2099080;82;21006;-75
2022/06/10 02:23:38;;;;;;;8.33;6.30;;;;;;;16.23;80.23;100202.41;2103161;82;21033;-75
2022/06/10 02:26:40;;;;;;;6.95;6.33;;;;;;;16.22;80.19;100206.09;2141845;82;21501;-76
2022/06/10 02:30:25;;;;;;;7.72;6.83;;;;;;;16.18;80.20;100211.03;2139003;82;21280;-76
2022/06/10 02:33:27;;;;;;;10.43;6.33;;;;;;;16.17;80.25;100213.41;2062429;86;21033;-76
2022/06/10 02:36:52;;;;;;;7.58;6.83;;;;;;;16.15;80.28;100220.80;2128553;82;21094;-75
2022/06/10 02:40:14;;;;;;;6.95;6.25;;;;;;;16.13;80.34;100221.02;2128785;81;21042;-76
2022/06/10 02:51:50;;;;;;;8.93;7.03;;;;;;;16.06;80.53;100230.04;2070841;84;21095;-76
2022/06/10 02:54:51;;;;;;;9.13;6.92;;;;;;;16.03;80.63;100225.09;2120657;82;21062;-76
2022/06/10 03:02:03;;;;;;;9.58;7.15;;;;;;;16.01;80.70;100249.88;2107706;82;21003;-76
2022/06/10 03:05:22;;;;;;;9.35;7.25;;;;;;;15.99;80.80;100251.92;2122307;83;21340;-76
2022/06/10 03:12:39;;;;;;;8.23;7.03;;;;;;;16.01;80.98;100266.75;2112593;83;21051;-76
2022/06/10 03:20:33;;;;;;;7.75;6.90;;;;;;;16.04;81.12;100265.53;2125210;83;21796;-76
2022/06/10 03:24:09;;;;;;;9.88;7.50;;;;;;;16.05;81.15;100276.55;2114108;83;21062;-76
2022/06/10 03:35:08;;;;;;;10.13;7.70;;;;;;;16.13;81.21;100297.80;1994440;89;21220;-75
2022/06/10 03:38:23;;;;;;;10.43;7.90;;;;;;;16.12;81.21;100305.00;2064382;82;21058;-76
2022/06/10 03:41:45;;;;;;;8.55;7.67;;;;;;;16.13;81.26;100306.67;2151695;82;21054;-76
2022/06/10 03:44:52;;;;;;;7.90;6.83;;;;;;;16.16;81.21;100312.63;2139414;82;21054;-76
2022/06/10 03:47:53;;;;;;;8.25;7.45;;;;;;;16.19;81.22;100316.25;2107927;82;21764;-76
2022/06/10 03:50:56;;;;;;;9.13;8.08;;;;;;;16.23;81.22;100318.34;2116402;82;21026;-75
2022/06/10 03:53:58;;;;;;;7.87;6.85;;;;;;;16.25;81.17;100323.00;2149697;81;20989;-76
2022/06/10 03:57:01;;;;;;;8.48;7.53;;;;;;;16.27;81.18;100326.80;2165575;81;21873;-75
2022/06/10 04:00:07;;;;;;;8.40;7.25;;;;;;;16.27;81.35;100341.52;2112603;82;21020;-75
2022/06/10 04:03:11;;;;;;;9.90;8.05;;;;;;;16.29;81.30;100342.98;2041265;85;21167;-76
2022/06/10 04:06:13;;;;;;;12.13;8.40;;;;;;;16.33;81.35;100347.41;2078951;85;21018;-76
2022/06/10 04:09:14;;;;;;;12.07;7.87;;;;;;;16.39;81.38;100353.34;2068911;84;21002;-76
2022/06/10 04:12:17;;;;;;;10.48;7.70;;;;;;;16.44;81.51;100355.40;2068716;85;21036;-76
2022/06/10 04:15:19;;;;;;;12.20;7.50;;;;;;;16.48;81.34;100358.01;2067394;85;21034;-75
2022/06/10 04:18:20;;;;;;;9.38;7.83;;;;;;;16.56;81.33;100358.66;2075085;85;21386;-76
2022/06/10 04:21:22;;;;;;;9.28;7.80;;;;;;;16.65;81.18;100356.63;2068522;85;21187;-76
2022/06/10 04:24:26;;;;;;;8.13;7.37;;;;;;;16.75;81.01;100358.91;2066696;85;21806;-75
2022/06/10 04:27:29;;;;;;;8.45;7.55;;;;;;;16.84;80.83;100355.57;2111502;82;21034;-75
2022/06/10 04:30:36;;;;;;;7.00;6.30;;;;;;;17.08;80.59;100355.54;2136632;81;21260;-76
2022/06/10 04:33:37;;;;;;;7.33;6.60;;;;;;;17.26;80.18;100373.22;2154898;82;21774;-76
2022/06/10 04:36:39;;;;;;;9.55;6.50;;;;;;;17.36;79.79;100372.80;2143217;82;21846;-76
2022/06/10 04:39:40;;;;;;;9.35;6.85;;;;;;;17.49;79.69;100371.48;2119459;82;21057;-76
2022/06/10 04:42:44;;;;;;;10.58;6.17;;;;;;;17.61;79.09;100373.84;2120129;83;20990;-74
2022/06/10 04:49:18;;;;;;;7.10;5.60;;;;;;;18.40;77.82;100375.30;2097633;83;21579;-79
2022/06/10 04:52:19;;;;;;;5.70;4.97;;;;;;;19.00;76.94;100386.10;2098574;83;20990;-77
2022/06/10 04:55:22;;;;;;;5.72;5.17;;;;;;;19.61;75.64;100388.70;2094483;83;20969;-78
2022/06/10 04:58:25;;;;;;;4.75;4.35;;;;;;;20.03;73.80;100393.02;2095552;83;21067;-73
2022/06/10 05:01:28;;;;;;;4.42;4.03;;;;;;;20.42;73.26;100395.00;2100195;83;20989;-75
2022/06/10 05:04:30;;;;;;;5.15;3.58;;;;;;;20.95;71.87;100399.77;2096978;83;21060;-75
2022/06/10 05:07:32;;;;;;;3.58;3.27;;;;;;;21.26;69.46;100405.45;2099417;83;21007;-73
2022/06/10 05:10:34;;;;;;;5.67;3.62;;;;;;;21.33;68.69;100418.83;2097792;83;21271;-73
2022/06/10 05:13:38;;;;;;;4.78;3.58;;;;;;;21.49;67.91;100419.56;2097956;83;21004;-74
2022/06/10 05:16:39;;;;;;;3.47;2.80;;;;;;;21.49;66.94;100423.61;2100650;83;21055;-74
2022/06/10 05:19:46;;;;;;;3.45;3.15;;;;;;;21.23;66.08;100429.34;2098198;83;21554;-77
2022/06/10 05:22:50;;;;;;;4.25;3.05;;;;;;;21.32;66.41;100436.63;2098773;83;21049;-74
2022/06/10 05:25:53;;;;;;;3.22;2.92;;;;;;;21.53;65.12;100437.99;2093437;83;21536;-74
2022/06/10 05:28:55;;;;;;;2.95;2.67;;;;;;;21.39;63.66;100437.36;2096413;83;21095;-73
2022/06/10 05:31:59;;;;;;;2.75;2.50;;;;;;;21.31;63.02;100439.82;2094316;84;21064;-73
2022/06/10 05:35:00;;;;;;;3.12;2.83;;;;;;;20.89;61.50;100443.84;2082051;84;21435;-72
2022/06/10 05:38:03;;;;;;;2.62;2.42;;;;;;;20.37;63.30;100458.17;2095475;83;21730;-73
2022/06/10 05:44:27;;;;;;;4.25;2.67;;;;;;;19.87;63.72;100460.90;2110295;82;21071;-73
2022/06/10 05:47:33;;;;;;;2.75;2.55;;;;;;;19.64;63.67;100466.31;2110023;82;21023;-73
2022/06/10 05:50:40;;;;;;;2.62;2.40;;;;;;;19.61;64.39;100472.14;2141416;82;20983;-73
2022/06/10 05:53:41;;;;;;;3.77;2.60;;;;;;;19.64;63.98;100469.00;2147474;82;21276;-73
2022/06/10 05:56:48;;;;;;;2.67;2.47;;;;;;;19.72;63.90;100469.83;2116867;83;21003;-72
2022/06/10 05:59:47;;;;;;;3.17;2.87;;;;;;;19.76;64.62;100466.46;2122688;82;21026;-73
2022/06/10 06:02:48;;;;;;;2.85;2.58;;;;;;;19.81;63.73;100469.86;2136645;83;21010;-73
2022/06/10 06:05:50;;;;;;;5.55;2.50;;;;;;;19.91;63.84;100481.80;2131300;81;20982;-73
2022/06/10 06:08:51;;;;;;;3.10;2.85;;;;;;;20.30;63.09;100487.04;2124150;81;20967;-73
2022/06/10 06:11:56;;;;;;;2.50;2.30;;;;;;;20.44;63.01;100484.55;2132023;82;21039;-73
2022/06/10 06:14:57;;;;;;;2.98;2.27;;;;;;;20.47;62.48;100482.75;2130762;82;21604;-73
2022/06/10 06:17:59;;;;;;;3.45;2.70;;;;;;;20.65;63.23;100493.27;2120772;83;21281;-73
2022/06/10 06:21:00;;;;;;;3.72;2.50;;;;;;;20.95;60.25;100496.87;2119787;82;21005;-73
2022/06/10 06:24:04;;;;;;;3.12;2.37;;;;;;;20.80;60.72;100496.41;2129405;82;21322;-72
2022/06/10 06:27:08;;;;;;;3.35;2.12;;;;;;;20.65;60.74;100509.45;2148772;82;21090;-73
2022/06/10 06:34:57;;;;;;;2.15;2.00;;;;;;;20.50;61.94;100521.38;2135342;83;21102;-73
2022/06/10 06:37:59;;;;;;;2.33;2.10;;;;;;;20.58;60.77;100527.02;2110009;82;20984;-73
2022/06/10 06:41:00;;;;;;;2.22;2.02;;;;;;;20.59;61.19;100524.64;2103451;82;20996;-73
2022/06/10 06:44:04;;;;;;;2.35;1.95;;;;;;;21.08;61.69;100530.12;2138495;82;21296;-73
2022/06/10 06:47:05;;;;;;;7.25;2.17;;;;;;;21.77;60.99;100528.81;2122776;82;21014;-72
2022/06/10 06:50:09;;;;;;;3.62;2.22;;;;;;;22.40;60.95;100532.81;2139360;82;20988;-73
2022/06/10 06:57:44;;;;;;;3.10;1.77;;;;;;;22.36;58.17;100535.70;2130121;82;21027;-73
2022/06/10 07:00:47;;;;;;;4.17;2.37;;;;;;;22.25;58.61;100544.63;2135176;82;21022;-73
2022/06/10 07:03:48;;;;;;;2.20;2.00;;;;;;;22.40;59.13;100540.92;2130441;82;21055;-72
2022/06/10 07:06:50;;;;;;;5.37;2.85;;;;;;;22.33;58.61;100543.75;2145935;82;20971;-73
2022/06/10 07:09:51;;;;;;;3.27;2.22;;;;;;;22.23;58.29;100548.08;2119338;82;21021;-72
2022/06/10 07:12:53;;;;;;;3.98;2.50;;;;;;;22.03;58.52;100538.91;2135449;82;20987;-73
2022/06/10 07:16:00;;;;;;;2.87;2.67;;;;;;;21.71;58.64;100548.11;2140614;82;21038;-73
2022/06/10 07:19:02;;;;;;;3.33;2.40;;;;;;;21.46;58.60;100564.45;2109029;84;21102;-72
2022/06/10 07:22:07;;;;;;;2.65;2.42;;;;;;;21.28;58.98;100565.23;2114213;82;21113;-72
2022/06/10 07:25:09;;;;;;;2.85;2.62;;;;;;;21.12;59.25;100567.23;2126806;82;21093;-72
2022/06/10 07:28:14;;;;;;;8.65;2.75;;;;;;;20.94;58.70;100576.12;2152737;82;21305;-72
2022/06/10 07:31:15;;;;;;;4.03;2.42;;;;;;;20.79;59.37;100571.09;2114333;82;21249;-72
2022/06/10 07:34:17;;;;;;;6.03;2.85;;;;;;;20.73;59.47;100580.08;2160330;82;21145;-72
2022/06/10 07:37:18;;;;;;;2.87;2.60;;;;;;;20.76;60.16;100578.81;2151174;82;21829;-72
2022/06/10 07:43:54;;;;;;;2.80;2.60;;;;;;;20.80;60.27;100587.56;2153252;82;21785;-72
2022/06/10 07:46:57;;;;;;;4.83;2.85;;;;;;;20.85;60.08;100588.25;2115415;82;21045;-72
2022/06/10 07:49:59;;;;;;;2.83;2.50;;;;;;;20.98;60.35;100592.70;2132365;81;21751;-72
2022/06/10 07:53:01;;;;;;;6.45;3.67;;;;;;;21.18;60.88;100588.44;2121463;82;21533;-72
2022/06/10 07:56:03;;;;;;;4.60;3.30;;;;;;;21.53;60.29;100594.57;2139801;82;21025;-72
2022/06/10 07:59:06;;;;;;;3.37;2.55;;;;;;;21.91;60.02;100600.49;2175243;81;21119;-72
2022/06/10 08:02:07;;;;;;;3.58;2.65;;;;;;;22.29;59.94;100599.31;2171413;81;21010;-72
2022/06/10 08:05:13;;;;;;;4.20;2.00;;;;;;;22.72;58.94;100592.79;2145850;82;21256;-72
2022/06/10 08:08:18;;;;;;;5.33;2.55;;;;;;;23.10;58.40;100584.72;2144723;81;21049;-72
2022/06/10 08:11:20;;;;;;;4.22;2.30;;;;;;;23.29;57.51;100589.45;2125713;82;20975;-72
2022/06/10 08:23:26;;;;;;;3.83;2.20;;;;;;;23.72;55.27;100586.79;2147366;82;21042;-72
2022/06/10 08:26:28;;;;;;;2.67;2.30;;;;;;;23.46;54.84;100590.34;2134007;82;21297;-72
2022/06/10 08:29:30;;;;;;;3.17;2.08;;;;;;;23.22;54.08;100586.86;2157965;82;21010;-72
2022/06/10 08:32:31;;;;;;;2.15;2.00;;;;;;;23.04;54.07;100587.84;2163043;81;20974;-72
2022/06/10 08:35:35;;;;;;;2.67;2.12;;;;;;;23.08;54.40;100591.42;2129138;81;20993;-72
2022/06/10 08:38:47;;;;;;;2.40;2.17;;;;;;;22.95;53.32;100597.89;2125872;84;21066;-76
2022/06/10 08:46:32;;;;;;;2.35;2.15;;;;;;;23.20;54.32;100591.70;2091879;82;21054;-76
2022/06/10 08:49:57;;;;;;;3.42;1.95;;;;;;;23.35;53.78;100593.08;2149444;82;21003;-76
2022/06/10 08:57:45;;;;;;;3.30;2.00;;;;;;;23.09;54.19;100602.03;2154257;82;21023;-76
2022/06/10 09:00:47;;;;;;;3.35;1.85;;;;;;;23.38;54.25;100598.83;2100786;82;21121;-75
2022/06/10 09:04:02;;;;;;;2.27;2.08;;;;;;;23.44;50.91;100605.17;2103341;82;20999;-76
2022/06/10 09:07:43;;;;;;;2.50;2.30;;;;;;;23.52;52.96;100607.50;2109670;84;21515;-76
2022/06/10 09:14:30;;;;;;;2.70;1.50;;;;;;;23.76;51.98;100615.03;2146391;82;21082;-76
2022/06/10 09:26:10;;;;;;;3.17;2.10;;;;;;;23.93;49.24;100617.78;2160763;81;21068;-76
2022/06/10 09:29:12;;;;;;;2.17;2.02;;;;;;;23.89;50.35;100623.41;2111634;83;20990;-76
2022/06/10 09:32:33;;;;;;;6.53;2.08;;;;;;;23.94;50.33;100620.80;2147618;82;21042;-76
2022/06/10 09:44:18;;;;;;;4.67;1.90;;;;;;;24.71;48.50;100628.89;2140303;82;21823;-76
2022/06/10 09:51:39;;;;;;;3.17;1.80;;;;;;;25.36;45.61;100627.37;2158389;80;21794;-76
2022/06/10 09:55:11;;;;;;;2.25;1.98;;;;;;;25.16;45.50;100630.11;2167776;80;21316;-76
2022/06/10 09:58:35;;;;;;;2.77;2.12;;;;;;;25.20;47.21;100636.70;2187440;80;21017;-76
2022/06/10 10:14:26;;;;;;;4.05;2.47;;;;;;;25.21;46.14;100635.62;2165319;82;21057;-76
2022/06/10 10:18:18;;;;;;;4.28;2.65;;;;;;;25.19;45.72;100643.73;2164763;81;21100;-76
2022/06/10 10:21:27;;;;;;;5.22;2.83;;;;;;;25.20;46.03;100635.86;2177382;80;21028;-76
2022/06/10 10:24:34;;;;;;;5.22;2.72;;;;;;;25.22;45.93;100638.61;2087743;82;21312;-75
2022/06/10 10:27:35;;;;;;;3.70;2.95;;;;;;;25.36;47.08;100635.53;2129274;82;21859;-74
2022/06/10 10:30:42;;;;;;;4.15;2.87;;;;;;;25.57;47.07;100639.34;2136060;82;20991;-75
2022/06/10 10:33:44;;;;;;;3.52;2.83;;;;;;;25.64;45.43;100644.02;2127617;83;21569;-76
2022/06/10 10:36:55;;;;;;;4.87;2.92;;;;;;;25.65;43.71;100644.30;2140617;82;21073;-75
2022/06/10 10:48:18;;;;;;;6.22;3.42;;;;;;;25.96;46.69;100645.51;2058561;85;21125;-76
2022/06/10 10:55:21;;;;;;;4.72;3.00;;;;;;;25.81;46.17;100636.60;2084896;85;21154;-75
2022/06/10 10:58:30;;;;;;;4.53;2.60;;;;;;;25.90;46.07;100629.69;2089933;85;21067;-76
2022/06/10 11:01:45;;;;;;;2.75;2.20;;;;;;;25.85;46.01;100635.06;2056827;85;21069;-75
2022/06/10 11:04:46;;;;;;;4.10;2.30;;;;;;;25.86;45.67;100631.26;2052432;87;21374;-75
2022/06/10 11:11:54;;;;;;;2.20;1.60;;;;;;;25.97;44.46;100646.33;2088820;82;21058;-75
2022/06/10 11:15:07;;;;;;;5.30;1.90;;;;;;;25.82;43.35;100634.19;2100479;85;21627;-75
2022/06/10 11:18:12;;;;;;;2.87;1.90;;;;;;;25.62;42.99;100626.63;2131819;81;21025;-75
2022/06/10 11:21:16;;;;;;;5.12;2.72;;;;;;;25.60;43.91;100630.67;2136754;82;21819;-74
2022/06/10 11:24:22;;;;;;;2.55;1.70;;;;;;;25.59;43.58;100635.80;2173402;81;21736;-74
2022/06/10 11:28:09;;;;;;;2.72;1.67;;;;;;;25.62;43.96;100631.22;2092453;85;21610;-76
2022/06/10 11:31:35;;;;;;;4.08;1.80;;;;;;;25.70;43.50;100630.77;2119267;82;21070;-76
2022/06/10 11:34:40;;;;;;;2.85;1.77;;;;;;;25.64;42.56;100631.80;2099969;82;21302;-76
2022/06/10 11:37:41;;;;;;;7.03;1.82;;;;;;;25.56;42.03;100632.23;2136748;82;21015;-76
2022/06/10 11:40:56;;;;;;;2.33;1.72;;;;;;;25.52;40.71;100618.89;2125440;82;21062;-76
2022/06/10 11:44:13;;;;;;;6.45;1.90;;;;;;;25.42;43.21;100623.66;2110392;82;21085;-76
2022/06/10 11:48:26;;;;;;;2.12;1.70;;;;;;;25.64;43.33;100629.08;2092560;84;21055;-76
2022/06/10 11:55:33;;;;;;;5.78;1.90;;;;;;;26.11;44.17;100613.56;2122361;84;21138;-76
2022/06/10 12:03:12;;;;;;;4.33;1.50;;;;;;;26.17;43.29;100620.69;2116331;83;21052;-76
2022/06/10 12:06:22;;;;;;;4.90;1.30;;;;;;;26.22;42.00;100617.20;2127225;82;21002;-76
2022/06/10 12:09:40;;;;;;;2.02;1.30;;;;;;;26.00;42.61;100622.16;2131489;83;21549;-77
2022/06/10 12:12:44;;;;;;;2.17;1.20;;;;;;;25.91;42.29;100616.37;2127789;82;21879;-76
2022/06/10 12:15:58;;;;;;;2.35;1.02;;;;;;;25.89;42.09;100621.23;2136478;82;21367;-76
2022/06/10 12:19:06;;;;;;;2.85;1.40;;;;;;;25.94;41.61;100614.49;2117285;84;21018;-76
2022/06/10 12:22:11;;;;;;;1.72;1.00;;;;;;;26.02;40.85;100612.40;2112764;83;21043;-76
2022/06/10 12:29:40;;;;;;;1.20;1.10;;;;;;;26.05;40.87;100611.34;2117027;82;21542;-76
2022/06/10 12:33:05;;;;;;;1.50;1.32;;;;;;;26.18;41.21;100608.72;2125730;82;21497;-76
2022/06/10 12:41:15;;;;;;;1.32;1.17;;;;;;;25.93;40.51;100612.86;2112186;82;21110;-76
2022/06/10 12:44:22;;;;;;;3.87;1.90;;;;;;;26.04;40.43;100617.02;2113229;82;21056;-76
2022/06/10 12:47:38;;;;;;;1.70;1.15;;;;;;;26.06;40.04;100610.80;2084892;83;21871;-76
2022/06/10 12:51:09;;;;;;;1.27;1.02;;;;;;;26.05;40.06;100614.60;2089807;83;20997;-76
2022/06/10 12:57:57;;;;;;;1.92;0.90;;;;;;;25.99;39.95;100613.73;2061021;83;21118;-77
2022/06/10 13:01:41;;;;;;;1.20;1.05;;;;;;;25.98;38.87;100616.69;2105328;84;21796;-77
2022/06/10 13:04:48;;;;;;;1.98;1.22;;;;;;;25.84;38.62;100616.28;2085103;84;20987;-78
2022/06/10 13:07:50;;;;;;;1.60;0.93;;;;;;;25.63;38.37;100613.86;2092926;84;21052;-78
2022/06/10 13:10:57;;;;;;;2.60;1.00;;;;;;;25.63;38.43;100615.22;2090997;83;21574;-78
2022/06/10 13:14:33;;;;;;;1.35;1.20;;;;;;;25.48;36.22;100607.69;2085176;84;21872;-78
2022/06/10 13:17:35;;;;;;;1.30;0.80;;;;;;;25.34;37.09;100616.79;2089833;85;21119;-78
2022/06/10 13:20:40;;;;;;;1.52;1.12;;;;;;;25.21;37.58;100613.08;2097004;84;21099;-78
2022/06/10 13:24:01;;;;;;;1.37;0.85;;;;;;;25.25;38.16;100610.95;2099587;83;21012;-78
2022/06/10 13:27:29;;;;;;;2.85;1.62;;;;;;;25.37;38.80;100608.64;2082900;84;21028;-78
2022/06/10 13:30:33;;;;;;;1.82;1.05;;;;;;;25.41;37.97;100608.44;2084364;84;21040;-84
2022/06/10 13:33:36;;;;;;;3.90;1.25;;;;;;;25.36;38.83;100614.62;2102096;83;21595;-83
2022/06/10 13:37:03;;;;;;;3.25;1.22;;;;;;;25.41;39.37;100607.89;2119781;83;21027;-83
2022/06/10 13:40:11;;;;;;;2.20;1.00;;;;;;;25.37;39.07;100612.20;2085668;84;21100;-85
2022/06/10 13:43:18;;;;;;;2.80;1.00;;;;;;;25.10;39.37;100606.66;2091178;83;21027;-85
2022/06/10 13:47:24;;;;;;;4.28;1.07;;;;;;;25.21;40.13;100606.29;2044672;83;21127;-79
2022/06/10 13:54:27;;;;;;;3.52;1.30;;;;;;;25.40;39.18;100608.16;2075395;86;21621;-81
2022/06/10 13:57:32;;;;;;;3.87;1.00;;;;;;;25.30;39.30;100608.84;2102501;83;21257;-82
2022/06/10 14:04:26;;;;;;;1.55;0.80;;;;;;;25.43;37.96;100605.75;2112694;83;20987;-82
2022/06/10 14:07:35;;;;;;;;;;;;;;;25.42;38.06;100609.52;2164769;82;21078;-82
2022/06/10 14:14:48;;;;;;;1.40;1.07;;;;;;;25.46;38.45;100599.81;2121058;83;21688;-82
2022/06/10 14:17:53;;;;;;;3.58;1.20;;;;;;;25.48;38.73;100598.19;2115843;83;21005;-82
2022/06/10 14:20:59;;;;;;;2.37;1.10;;;;;;;25.45;38.25;100599.54;2108446;83;21046;-82
2022/06/10 14:31:48;;;;;;;1.72;1.20;;;;;;;25.15;38.43;100594.55;2124918;83;21632;-80
2022/06/10 14:34:52;;;;;;;4.85;1.40;;;;;;;25.09;39.29;100588.73;2105583;83;21087;-82
2022/06/10 14:38:16;;;;;;;3.15;1.00;;;;;;;25.14;39.66;100596.11;2129342;83;21255;-82
2022/06/10 14:41:22;;;;;;;2.20;1.10;;;;;;;25.05;38.78;100593.01;2121934;83;21022;-82
2022/06/10 14:48:44;;;;;;;4.45;1.27;;;;;;;24.86;39.19;100593.02;2140952;81;21170;-81
2022/06/10 14:51:46;;;;;;;2.12;1.15;;;;;;;24.65;38.78;100585.13;2170265;82;20975;-80
2022/06/10 14:54:48;;;;;;;2.40;1.32;;;;;;;24.65;39.31;100586.48;2159110;82;20986;-81
2022/06/10 14:58:16;;;;;;;2.10;1.20;;;;;;;24.66;39.70;100580.79;2172697;82;21074;-80
2022/06/10 15:01:50;;;;;;;4.10;1.30;;;;;;;24.69;39.96;100583.55;2162105;81;21028;-81
2022/06/10 15:08:53;;;;;;;2.42;1.25;;;;;;;24.67;39.65;100585.70;2151062;81;21077;-81
2022/06/10 15:11:56;;;;;;;2.12;1.40;;;;;;;24.57;39.83;100591.78;2152538;81;21001;-81
2022/06/10 15:14:58;;;;;;;3.10;1.22;;;;;;;24.47;38.81;100584.33;2117629;82;21042;-81
2022/06/10 15:17:59;;;;;;;2.60;1.07;;;;;;;24.39;39.17;100582.81;2110069;82;21038;-81
2022/06/10 15:21:07;;;;;;;1.57;1.10;;;;;;;24.34;38.12;100588.14;2160881;81;21089;-81
2022/06/10 15:24:13;;;;;;;4.03;1.30;;;;;;;24.24;39.34;100580.38;2133936;82;21014;-81
2022/06/10 15:27:49;;;;;;;3.27;1.30;;;;;;;24.13;38.59;100580.22;2048876;87;21040;-81
2022/06/10 15:30:56;;;;;;;2.10;1.20;;;;;;;24.10;39.44;100584.78;2125980;82;21049;-81
2022/06/10 15:33:59;;;;;;;6.45;1.65;;;;;;;24.15;39.81;100579.42;2154334;82;21034;-81
2022/06/10 15:40:43;;;;;;;3.80;1.40;;;;;;;24.25;40.38;100578.78;2073090;84;21469;-80
2022/06/10 15:43:44;;;;;;;5.17;1.80;;;;;;;24.27;40.05;100575.81;2075687;84;21159;-80
2022/06/10 15:46:55;;;;;;;4.62;1.67;;;;;;;24.24;40.13;100573.59;2148516;83;21335;-80
2022/06/10 15:49:57;;;;;;;4.78;1.62;;;;;;;24.14;40.00;100572.37;2153029;81;21529;-80
2022/06/10 15:52:59;;;;;;;1.87;1.20;;;;;;;24.09;40.09;100576.34;2166067;81;20978;-80
2022/06/10 16:00:02;;;;;;;3.22;1.70;;;;;;;23.73;39.89;100570.00;2121429;84;21567;-80
2022/06/10 16:03:05;;;;;;;3.72;2.20;;;;;;;23.64;40.50;100573.06;2120923;82;21871;-81
2022/06/10 16:06:09;;;;;;;1.60;1.50;;;;;;;23.67;40.78;100577.18;2179705;81;21806;-80
2022/06/10 16:09:11;;;;;;;2.33;1.45;;;;;;;23.71;40.93;100575.14;2134414;81;21014;-81
2022/06/10 16:19:54;;;;;;;2.90;1.60;;;;;;;23.43;40.48;100569.69;2159736;82;22080;-80
2022/06/10 16:22:55;;;;;;;3.67;1.52;;;;;;;23.33;39.97;100569.48;2130490;81;21066;-80
2022/06/10 16:29:49;;;;;;;3.90;1.57;;;;;;;23.10;40.42;100571.18;2122999;81;21094;-80
2022/06/10 16:32:52;;;;;;;1.45;1.20;;;;;;;23.12;40.72;100569.06;2146914;81;21887;-79
2022/06/10 16:35:54;;;;;;;6.50;1.90;;;;;;;23.16;40.85;100572.92;2106242;83;21049;-80
2022/06/10 16:38:56;;;;;;;4.35;1.20;;;;;;;23.14;40.74;100566.11;2122685;81;21014;-65
2022/06/10 16:41:58;;;;;;;4.22;1.75;;;;;;;23.14;40.48;100566.92;2100541;84;21121;-72
2022/06/10 16:45:00;;;;;;;4.95;1.80;;;;;;;23.12;40.47;100570.42;2140338;81;20991;-75
2022/06/10 16:48:28;;;;;;;4.28;1.22;;;;;;;23.12;40.82;100575.83;2136342;81;21054;-75
2022/06/10 16:51:29;;;;;;;4.35;1.40;;;;;;;23.17;40.90;100580.52;2101112;83;21356;-73
2022/06/10 16:54:32;;;;;;;3.98;1.60;;;;;;;23.14;40.11;100579.10;2124443;82;21322;-74
2022/06/10 16:57:51;;;;;;;8.73;1.50;;;;;;;23.12;40.78;100577.19;2133522;82;21768;-77
2022/06/10 17:00:52;;;;;;;2.47;1.55;;;;;;;23.11;40.21;100580.12;2112966;82;21900;-76
2022/06/10 17:03:54;;;;;;;2.02;1.40;;;;;;;23.07;40.57;100581.13;2133300;82;21544;-76
2022/06/10 17:06:56;;;;;;;3.17;1.40;;;;;;;23.07;40.78;100583.84;2095858;82;21834;-76
2022/06/10 17:10:00;;;;;;;2.58;1.47;;;;;;;23.10;40.77;100593.37;2163944;82;21831;-77
2022/06/10 17:13:05;;;;;;;2.60;1.25;;;;;;;22.98;40.46;100593.39;2128585;82;21059;-77
2022/06/10 17:16:25;;;;;;;3.25;1.40;;;;;;;22.96;40.44;100596.32;2095467;82;20967;-76
2022/06/10 17:24:20;;;;;;;2.20;1.22;;;;;;;22.89;40.23;100596.95;2111577;84;21006;-73
2022/06/10 17:31:09;;;;;;;4.58;3.10;;;;;;;22.87;40.29;100600.95;2095887;82;21059;-65
2022/06/10 17:34:13;;;;;;;5.80;3.12;;;;;;;22.81;40.20;100601.38;2158074;81;21746;-69
2022/06/10 17:37:22;;;;;;;9.63;3.95;;;;;;;22.80;40.63;100604.58;2127484;83;21859;-69
2022/06/10 17:40:24;;;;;;;6.47;3.55;;;;;;;22.77;40.74;100603.70;2117179;82;21607;-69
2022/06/10 17:43:31;;;;;;;4.45;2.47;;;;;;;22.75;40.46;100599.58;2120201;83;21076;-68
2022/06/10 17:50:34;;;;;;;3.10;1.20;;;;;;;22.62;40.59;100604.71;2143353;82;21122;-78
2022/06/10 17:53:36;;;;;;;5.80;1.70;;;;;;;22.55;40.49;100607.54;2135260;82;21037;-79
2022/06/10 17:56:38;;;;;;;4.03;1.90;;;;;;;22.51;40.95;100610.94;2120062;81;21042;-79
2022/06/10 17:59:40;;;;;;;4.17;1.62;;;;;;;22.44;40.96;100615.11;2154103;82;20951;-79
2022/06/10 18:02:46;;;;;;;3.75;1.80;;;;;;;22.40;41.30;100613.09;2162176;81;20962;-78
2022/06/10 18:06:00;;;;;;;2.33;1.52;;;;;;;22.32;41.49;100616.95;2111781;82;21026;-78
2022/06/10 18:09:02;;;;;;;6.08;1.50;;;;;;;22.16;41.72;100621.13;2134234;81;21894;-75
2022/06/10 18:12:04;;;;;;;4.28;1.40;;;;;;;22.01;42.15;100619.37;2141070;82;21496;-76
2022/06/10 18:15:11;;;;;;;3.37;1.57;;;;;;;21.83;42.50;100622.42;2125076;82;20998;-76
2022/06/10 18:18:14;;;;;;;5.92;1.50;;;;;;;21.71;42.76;100629.12;2163736;81;21512;-76
2022/06/10 18:21:16;;;;;;;2.52;1.30;;;;;;;21.60;42.97;100633.95;2113129;83;20975;-72
2022/06/10 18:24:22;;;;;;;3.62;2.17;;;;;;;21.46;43.33;100628.41;2138706;83;21022;-73
2022/06/10 18:32:12;;;;;;;6.03;2.20;;;;;;;21.22;43.64;100639.54;2141251;82;21059;-72
2022/06/10 18:36:08;;;;;;;4.47;1.95;;;;;;;21.05;43.93;100638.77;2153874;81;21073;-77
2022/06/10 18:39:22;;;;;;;4.70;2.12;;;;;;;20.95;44.21;100639.01;2117372;81;21062;-76